map of BGI home
Great Circle Mapper logo
BGI - Airport
Location
City:  Bridgetown, Barbados
Name:Grantley Adams International Airport
ICAO / IATA:TBPB / BGI

Details
Type:Airport (Aerodrome, Airfield)
Use:Public/Civil, International (customs port of entry)
Latitude:1304'29"N (13.074603)
Longitude:5929'33"W (-59.492455)
Datum:WGS 1984
Elevation:169 ft (52 m)
Runways:1
Longest:11000 × 150 ft (3353 × 45.5 m), paved

Time
Time Zone:UTC-4
Local Time:

Weather
METAR:TBPB 010600Z 13008KT 9999 SCT018 28/25 Q1012 NOSIG
TAF:TBPB 010400Z 0106/0206 12012KT 9999 SCT018 PROB30
TEMPO 0114/0118 8000 SHRA BKN016

Related Locations
Nearby:
Farthest:RTI: 12205 mi / 19642 km
Baa, Roti Island, East Nusa Tenggara, ID

Find:

   beyond  
but within

Other Information
Maps:
NOTAMs:
Links:
Sources:

  
flag of Barbados   

Airport Diagram

Airport diagram for BGI

Airport diagram (OBSOLETE) from NGA

Sectional Chart

Flight Planning
at skyvector.com

Satellite Image

Google Maps Satellite View

 

Copyright © 2004-2014 Karl L. Swartz. All rights reserved.
The Great Circle Mapper name and logo are trademarks of the Great Circle Mapper.
All other trademarks mentioned herein belong to their respective owners.
Please see credits for attibutions and further copyright information.

  Follow gcmap on Facebook Follow gcmap on Twitter

hCard Microformat

Geo Microformat